Time;durP1;ratioP1;P1;durP2;ratioP2;P2;SDS_P1;SDS_P2;PMS_P1;PMS_P2;Temp;Humidity;BMP_temperature;BMP_pressure;BME280_temperature;BME280_humidity;BME280_pressure;Samples;Min_cycle;Max_cycle;Signal;HPM_P1;HPM_P2
2023/01/03 00:01:47;;;;;;;;;3.50;3.00;;;;;;;;5085887;28;61682;-83
2023/01/03 00:04:13;;;;;;;;;4.00;3.00;;;;;;;;5085465;28;61878;-82
2023/01/03 00:06:39;;;;;;;;;4.50;3.00;;;;;;;;5084917;28;61914;-81
2023/01/03 00:09:08;;;;;;;;;2.00;2.00;;;;;;;;5083928;28;63874;-82
2023/01/03 00:14:19;;;;;;;;;2.00;2.00;;;;;;;;5085681;28;62023;-82
2023/01/03 00:16:45;;;;;;;;;2.00;2.00;;;;;;;;5084565;28;61801;-82
2023/01/03 00:19:11;;;;;;;;;5.25;3.00;;;;;;;;5084273;27;62758;-81
2023/01/03 00:21:37;;;;;;;;;6.25;6.25;;;;;;;;5085666;28;61880;-82
2023/01/03 00:24:03;;;;;;;;;5.50;4.50;;;;;;;;5085550;28;61777;-82
2023/01/03 00:26:28;;;;;;;;;5.00;5.00;;;;;;;;5085689;27;61875;-81
2023/01/03 00:28:53;;;;;;;;;8.25;6.75;;;;;;;;5083373;28;63806;-81
2023/01/03 00:31:18;;;;;;;;;8.50;7.00;;;;;;;;5085535;28;61913;-82
2023/01/03 00:33:44;;;;;;;;;3.75;3.75;;;;;;;;5083819;28;62106;-82
2023/01/03 00:36:09;;;;;;;;;7.75;6.50;;;;;;;;5084420;28;61812;-82
2023/01/03 00:38:35;;;;;;;;;11.00;7.50;;;;;;;;5084501;28;61789;-82
2023/01/03 00:41:07;;;;;;;;;7.25;5.25;;;;;;;;5085486;28;61831;-81
2023/01/03 00:43:32;;;;;;;;;8.00;7.00;;;;;;;;5083481;28;62029;-81
2023/01/03 00:45:58;;;;;;;;;7.50;5.00;;;;;;;;5084314;28;61998;-82
2023/01/03 00:48:23;;;;;;;;;5.75;4.50;;;;;;;;5082715;28;63736;-81
2023/01/03 00:50:48;;;;;;;;;8.00;6.25;;;;;;;;5085091;28;61912;-82
2023/01/03 00:53:14;;;;;;;;;4.25;4.25;;;;;;;;5085163;28;61848;-81
2023/01/03 00:55:39;;;;;;;;;10.75;3.00;;;;;;;;5085305;28;61744;-82
2023/01/03 00:58:04;;;;;;;;;4.00;2.50;;;;;;;;5084292;28;62138;-81
2023/01/03 01:00:29;;;;;;;;;6.75;3.25;;;;;;;;5083614;27;62114;-82
2023/01/03 01:02:55;;;;;;;;;8.50;3.50;;;;;;;;5084835;28;62407;-81
2023/01/03 01:05:20;;;;;;;;;5.25;3.50;;;;;;;;5083822;28;61737;-81
2023/01/03 01:07:45;;;;;;;;;1.00;1.00;;;;;;;;5084070;28;61704;-81
2023/01/03 01:10:11;;;;;;;;;2.75;2.00;;;;;;;;5084950;28;62271;-82
2023/01/03 01:12:36;;;;;;;;;3.00;3.00;;;;;;;;5084631;28;62080;-81
2023/01/03 01:15:01;;;;;;;;;6.00;2.00;;;;;;;;5083610;28;61821;-82
2023/01/03 01:17:27;;;;;;;;;2.00;2.00;;;;;;;;5083790;28;62581;-80
2023/01/03 01:19:52;;;;;;;;;3.00;2.25;;;;;;;;5083280;28;61911;-81
2023/01/03 01:22:18;;;;;;;;;3.00;3.00;;;;;;;;5083678;28;62106;-81
2023/01/03 01:24:43;;;;;;;;;3.75;2.75;;;;;;;;5084659;28;61805;-84
2023/01/03 01:27:08;;;;;;;;;6.25;2.50;;;;;;;;5084164;28;63064;-81
2023/01/03 01:29:33;;;;;;;;;2.00;2.00;;;;;;;;5083184;28;62066;-82
2023/01/03 01:32:00;;;;;;;;;3.00;2.50;;;;;;;;5083374;28;62046;-81
2023/01/03 01:34:25;;;;;;;;;3.50;3.50;;;;;;;;5084566;28;62124;-81
2023/01/03 01:36:51;;;;;;;;;2.25;2.25;;;;;;;;5084010;28;63159;-81
2023/01/03 01:39:17;;;;;;;;;5.25;3.00;;;;;;;;5084515;28;62221;-81
2023/01/03 01:44:45;;;;;;;;;4.25;3.50;;;;;;;;5084485;28;61916;-80
2023/01/03 01:47:14;;;;;;;;;3.75;2.75;;;;;;;;5082436;28;63935;-81
2023/01/03 01:49:39;;;;;;;;;3.00;2.00;;;;;;;;5083559;28;62086;-82
2023/01/03 01:52:05;;;;;;;;;4.00;2.25;;;;;;;;5082734;28;61773;-80
2023/01/03 01:54:30;;;;;;;;;2.75;2.75;;;;;;;;5084464;28;61858;-81
2023/01/03 01:56:56;;;;;;;;;3.50;2.25;;;;;;;;5081926;28;64024;-82
2023/01/03 01:59:21;;;;;;;;;2.00;2.00;;;;;;;;5083933;27;61910;-81
2023/01/03 02:01:48;;;;;;;;;7.75;3.25;;;;;;;;5084044;28;62228;-82
2023/01/03 02:04:18;;;;;;;;;2.25;1.75;;;;;;;;5082508;28;62143;-81
2023/01/03 02:06:44;;;;;;;;;6.00;3.00;;;;;;;;5083387;28;61792;-81
2023/01/03 02:09:09;;;;;;;;;3.75;3.00;;;;;;;;5083901;28;61738;-80
2023/01/03 02:11:50;;;;;;;;;5.75;3.25;;;;;;;;5082197;28;62233;-82
2023/01/03 02:14:18;;;;;;;;;3.00;3.00;;;;;;;;5084189;28;61652;-82
2023/01/03 02:16:52;;;;;;;;;2.50;2.50;;;;;;;;5083272;28;62707;-81
2023/01/03 02:19:36;;;;;;;;;3.25;2.75;;;;;;;;5082050;28;61847;-81
2023/01/03 02:22:19;;;;;;;;;4.50;3.00;;;;;;;;5082798;28;61786;-81
2023/01/03 02:24:59;;;;;;;;;4.00;3.00;;;;;;;;5083770;28;61892;-81
2023/01/03 02:27:52;;;;;;;;;3.25;3.25;;;;;;;;5083192;28;61793;-80
2023/01/03 02:30:17;;;;;;;;;4.50;3.00;;;;;;;;5083726;28;62067;-81
2023/01/03 02:32:54;;;;;;;;;3.75;3.00;;;;;;;;5081689;28;62333;-80
2023/01/03 02:35:36;;;;;;;;;2.50;2.50;;;;;;;;5083967;28;61857;-80
2023/01/03 02:38:12;;;;;;;;;3.00;3.00;;;;;;;;5083032;28;61888;-81
2023/01/03 02:40:44;;;;;;;;;3.25;3.25;;;;;;;;5081927;28;61853;-81
2023/01/03 02:43:15;;;;;;;;;2.25;2.00;;;;;;;;5081956;28;61744;-80
2023/01/03 02:45:50;;;;;;;;;4.50;1.50;;;;;;;;5083627;28;62141;-81
2023/01/03 02:48:27;;;;;;;;;4.00;3.50;;;;;;;;5081251;28;63981;-81
2023/01/03 02:50:55;;;;;;;;;8.00;5.00;;;;;;;;5083112;28;62405;-81
2023/01/03 02:53:24;;;;;;;;;2.75;2.75;;;;;;;;5083317;28;61897;-80
2023/01/03 02:55:51;;;;;;;;;5.00;3.00;;;;;;;;5083397;27;62122;-81
2023/01/03 02:58:19;;;;;;;;;3.25;3.00;;;;;;;;5081321;28;63733;-81
2023/01/03 03:00:47;;;;;;;;;4.00;3.00;;;;;;;;5082912;27;62146;-81
2023/01/03 03:03:14;;;;;;;;;4.50;3.75;;;;;;;;5082840;28;61871;-80
2023/01/03 03:05:51;;;;;;;;;3.75;3.00;;;;;;;;5082244;28;62106;-80
2023/01/03 03:08:17;;;;;;;;;2.50;2.50;;;;;;;;5082287;27;61861;-81
2023/01/03 03:13:27;;;;;;;;;5.00;5.00;;;;;;;;5082990;28;62158;-80
2023/01/03 03:15:55;;;;;;;;;3.00;3.00;;;;;;;;5083154;28;62012;-80
2023/01/03 03:18:23;;;;;;;;;6.25;4.00;;;;;;;;5081648;28;62063;-81
2023/01/03 03:26:21;;;;;;;;;3.75;1.25;;;;;;;;5083193;28;61929;-81
2023/01/03 03:28:49;;;;;;;;;3.00;3.00;;;;;;;;5080502;28;63767;-80
2023/01/03 03:31:28;;;;;;;;;2.25;2.25;;;;;;;;5081672;28;62327;-81
2023/01/03 03:33:54;;;;;;;;;3.75;2.00;;;;;;;;5082260;28;61805;-80
2023/01/03 03:36:31;;;;;;;;;3.25;1.25;;;;;;;;5083111;27;61697;-81
2023/01/03 03:38:57;;;;;;;;;4.00;2.00;;;;;;;;5081827;27;62767;-82
2023/01/03 03:47:32;;;;;;;;;3.00;3.00;;;;;;;;5082801;28;62070;-82
2023/01/03 03:50:00;;;;;;;;;1.00;1.00;;;;;;;;5079566;28;63735;-81
2023/01/03 03:52:27;;;;;;;;;2.50;2.50;;;;;;;;5082413;27;62183;-82
2023/01/03 03:54:56;;;;;;;;;3.25;3.25;;;;;;;;5081032;28;61772;-81
2023/01/03 03:57:27;;;;;;;;;4.00;2.25;;;;;;;;5082893;27;61802;-82
2023/01/03 03:59:57;;;;;;;;;3.00;3.00;;;;;;;;5081328;27;61894;-81
2023/01/03 04:02:24;;;;;;;;;11.75;4.00;;;;;;;;5082625;28;62768;-82
2023/01/03 04:04:54;;;;;;;;;4.00;3.00;;;;;;;;5080725;28;62032;-81
2023/01/03 04:07:19;;;;;;;;;4.00;2.25;;;;;;;;5082454;27;62349;-81
2023/01/03 04:09:44;;;;;;;;;2.00;2.00;;;;;;;;5081796;28;61831;-82
2023/01/03 04:12:09;;;;;;;;;4.00;3.50;;;;;;;;5081990;28;62103;-80
2023/01/03 04:14:35;;;;;;;;;3.00;3.00;;;;;;;;5082204;28;61874;-81
2023/01/03 04:17:00;;;;;;;;;3.25;2.25;;;;;;;;5082409;28;62097;-81
2023/01/03 04:19:25;;;;;;;;;5.50;2.00;;;;;;;;5079781;28;63978;-81
2023/01/03 04:21:50;;;;;;;;;4.50;3.25;;;;;;;;5080556;28;61820;-81
2023/01/03 04:24:18;;;;;;;;;8.25;2.75;;;;;;;;5081907;28;62132;-81
2023/01/03 04:26:43;;;;;;;;;7.50;3.75;;;;;;;;5081071;28;61956;-81
2023/01/03 04:29:08;;;;;;;;;2.00;2.00;;;;;;;;5081446;28;62313;-81
2023/01/03 04:31:34;;;;;;;;;4.00;4.00;;;;;;;;5082007;28;61896;-81
2023/01/03 04:33:59;;;;;;;;;2.00;2.00;;;;;;;;5081519;28;61890;-81
2023/01/03 04:36:24;;;;;;;;;5.00;4.25;;;;;;;;5084978;28;61976;-81
2023/01/03 04:38:49;;;;;;;;;3.50;2.00;;;;;;;;5083392;28;63486;-82
2023/01/03 04:41:15;;;;;;;;;3.00;3.00;;;;;;;;5085239;28;61796;-81
2023/01/03 04:46:24;;;;;;;;;2.00;2.00;;;;;;;;5085520;28;62227;-81
2023/01/03 04:48:49;;;;;;;;;6.25;4.00;;;;;;;;5082824;28;64763;-80
2023/01/03 04:51:15;;;;;;;;;4.50;3.00;;;;;;;;5085055;28;61809;-81
2023/01/03 04:53:40;;;;;;;;;3.50;3.50;;;;;;;;5085185;28;61959;-80
2023/01/03 04:56:05;;;;;;;;;3.75;2.50;;;;;;;;5083957;28;61901;-81
2023/01/03 04:58:31;;;;;;;;;4.75;3.00;;;;;;;;5084560;27;62050;-81
2023/01/03 05:01:00;;;;;;;;;3.75;3.00;;;;;;;;5100140;27;61990;-81
2023/01/03 05:03:25;;;;;;;;;3.25;3.25;;;;;;;;5103766;27;62984;-81
2023/01/03 05:05:52;;;;;;;;;4.00;4.00;;;;;;;;5105519;27;61732;-80
2023/01/03 05:08:19;;;;;;;;;11.00;6.00;;;;;;;;5104427;27;61811;-81
2023/01/03 05:10:45;;;;;;;;;6.50;2.75;;;;;;;;5105571;27;61809;-81
2023/01/03 05:13:10;;;;;;;;;6.00;6.00;;;;;;;;5105195;27;61835;-82
2023/01/03 05:15:37;;;;;;;;;6.75;4.00;;;;;;;;5105474;27;61829;-81
2023/01/03 05:18:03;;;;;;;;;4.75;3.00;;;;;;;;5104408;27;61801;-81
2023/01/03 05:26:12;;;;;;;;;5.00;5.00;;;;;;;;5062224;28;61848;-80
2023/01/03 05:28:38;;;;;;;;;4.00;3.00;;;;;;;;5061359;28;61940;-82
2023/01/03 05:31:03;;;;;;;;;2.50;2.50;;;;;;;;5061800;28;61981;-81
2023/01/03 05:33:29;;;;;;;;;6.25;2.00;;;;;;;;5060809;28;61915;-80
2023/01/03 05:35:54;;;;;;;;;2.00;1.00;;;;;;;;5062109;28;61829;-80
2023/01/03 05:38:20;;;;;;;;;3.00;3.00;;;;;;;;5044072;28;64063;-81
2023/01/03 05:40:45;;;;;;;;;2.50;2.50;;;;;;;;5061740;28;61849;-82
2023/01/03 05:43:10;;;;;;;;;4.00;2.00;;;;;;;;5044922;28;61786;-80
2023/01/03 05:45:36;;;;;;;;;6.25;4.00;;;;;;;;5061671;28;61893;-81
2023/01/03 05:48:01;;;;;;;;;5.00;3.00;;;;;;;;5043270;28;64745;-81
2023/01/03 05:50:27;;;;;;;;;9.00;3.00;;;;;;;;5061089;28;61860;-81
2023/01/03 05:52:52;;;;;;;;;6.00;2.75;;;;;;;;5061451;28;62097;-81
2023/01/03 05:55:17;;;;;;;;;7.25;3.25;;;;;;;;5061639;28;61773;-82
2023/01/03 05:57:43;;;;;;;;;3.00;1.75;;;;;;;;5044036;28;63710;-81
2023/01/03 06:00:09;;;;;;;;;4.00;3.00;;;;;;;;5047172;28;62053;-81
2023/01/03 06:02:34;;;;;;;;;2.50;2.50;;;;;;;;5054014;28;62266;-82
2023/01/03 06:04:59;;;;;;;;;2.25;2.25;;;;;;;;5083998;28;62054;-82
2023/01/03 06:07:25;;;;;;;;;4.00;3.00;;;;;;;;5083427;28;63047;-81
2023/01/03 06:09:50;;;;;;;;;1.25;1.25;;;;;;;;5084263;28;61799;-82
2023/01/03 06:12:15;;;;;;;;;3.00;3.00;;;;;;;;5082042;28;62503;-82
2023/01/03 06:14:40;;;;;;;;;3.25;3.00;;;;;;;;5084514;28;61944;-82
2023/01/03 06:19:50;;;;;;;;;5.00;2.00;;;;;;;;5083385;28;61898;-82
2023/01/03 06:22:15;;;;;;;;;11.25;3.00;;;;;;;;5086322;28;62122;-82
2023/01/03 06:24:40;;;;;;;;;4.00;3.00;;;;;;;;5084031;28;61720;-83
2023/01/03 06:27:05;;;;;;;;;4.50;3.50;;;;;;;;5081855;28;64789;-82
2023/01/03 06:29:31;;;;;;;;;5.50;3.50;;;;;;;;5081656;28;61854;-82
2023/01/03 06:31:56;;;;;;;;;2.00;2.00;;;;;;;;5082718;28;61713;-82
2023/01/03 06:34:21;;;;;;;;;2.50;2.00;;;;;;;;5081991;28;61778;-81
2023/01/03 06:36:46;;;;;;;;;1.25;1.25;;;;;;;;5083282;28;62924;-82
2023/01/03 06:39:12;;;;;;;;;9.25;3.25;;;;;;;;5083688;28;62141;-82
2023/01/03 06:41:37;;;;;;;;;2.50;2.50;;;;;;;;5082292;28;62067;-81
2023/01/03 06:44:02;;;;;;;;;3.00;3.00;;;;;;;;5083028;28;61893;-83
2023/01/03 06:54:45;;;;;;;;;6.75;5.50;;;;;;;;5080375;28;61730;-83
2023/01/03 06:57:11;;;;;;;;;3.50;3.50;;;;;;;;5081917;27;62742;-82
2023/01/03 06:59:36;;;;;;;;;6.25;3.75;;;;;;;;5082147;27;61934;-82
2023/01/03 07:02:01;;;;;;;;;3.00;3.00;;;;;;;;5093898;27;62031;-79
2023/01/03 07:04:26;;;;;;;;;7.00;6.00;;;;;;;;5080806;28;62130;-79
2023/01/03 07:06:52;;;;;;;;;6.00;3.75;;;;;;;;5081177;28;63164;-79
2023/01/03 07:09:17;;;;;;;;;9.75;4.25;;;;;;;;5081920;27;61989;-79
2023/01/03 07:11:42;;;;;;;;;3.00;3.00;;;;;;;;5081709;27;62023;-78
2023/01/03 07:14:09;;;;;;;;;7.00;6.00;;;;;;;;5081513;27;61936;-77
2023/01/03 07:16:37;;;;;;;;;4.25;2.00;;;;;;;;5081224;27;61722;-79
2023/01/03 07:19:03;;;;;;;;;9.25;3.00;;;;;;;;5077426;28;62278;-79
2023/01/03 07:21:29;;;;;;;;;5.25;2.25;;;;;;;;5082366;27;61867;-80
2023/01/03 07:23:56;;;;;;;;;4.00;3.00;;;;;;;;5081827;27;61924;-79
2023/01/03 07:26:23;;;;;;;;;6.25;4.50;;;;;;;;5080582;28;63737;-81
2023/01/03 07:28:48;;;;;;;;;7.50;2.00;;;;;;;;5081314;27;61727;-80
2023/01/03 07:31:13;;;;;;;;;3.50;3.00;;;;;;;;5082559;27;62108;-80
2023/01/03 07:33:39;;;;;;;;;6.00;4.00;;;;;;;;5081905;28;62268;-79
2023/01/03 07:36:06;;;;;;;;;4.00;3.00;;;;;;;;5081911;27;61942;-79
2023/01/03 07:38:31;;;;;;;;;6.75;3.00;;;;;;;;5076122;27;61836;-85
2023/01/03 07:40:57;;;;;;;;;6.25;4.00;;;;;;;;5063045;27;61702;-84
2023/01/03 07:43:38;;;;;;;;;7.75;2.75;;;;;;;;5060769;28;61786;-82
2023/01/03 07:46:23;;;;;;;;;5.50;2.00;;;;;;;;5060987;28;61766;-84
2023/01/03 07:48:54;;;;;;;;;4.00;4.00;;;;;;;;5066751;28;61850;-83
2023/01/03 07:51:19;;;;;;;;;5.25;3.00;;;;;;;;5079921;28;62059;-82
2023/01/03 07:53:45;;;;;;;;;9.75;3.00;;;;;;;;5080214;28;61872;-83
2023/01/03 07:56:15;;;;;;;;;6.50;4.25;;;;;;;;5080348;28;61885;-81
2023/01/03 07:58:41;;;;;;;;;7.00;3.75;;;;;;;;5079324;27;61942;-83
2023/01/03 08:01:13;;;;;;;;;6.75;4.00;;;;;;;;5078863;27;61889;-80
2023/01/03 08:03:39;;;;;;;;;6.50;2.75;;;;;;;;5078671;28;62122;-79
2023/01/03 08:06:06;;;;;;;;;5.50;3.50;;;;;;;;5080644;27;61716;-80
2023/01/03 08:08:31;;;;;;;;;6.00;3.00;;;;;;;;5081463;27;61827;-83
2023/01/03 08:13:41;;;;;;;;;5.50;3.00;;;;;;;;5084806;28;62029;-84
2023/01/03 08:16:07;;;;;;;;;6.25;6.00;;;;;;;;5084816;27;61838;-84
2023/01/03 08:18:33;;;;;;;;;9.75;5.00;;;;;;;;5085349;27;62124;-83
2023/01/03 08:20:58;;;;;;;;;5.00;4.00;;;;;;;;5084864;28;62121;-83
2023/01/03 08:23:24;;;;;;;;;4.00;4.00;;;;;;;;5085400;28;61925;-83
2023/01/03 08:25:50;;;;;;;;;2.50;2.50;;;;;;;;5084336;27;62091;-83
2023/01/03 08:28:15;;;;;;;;;5.00;3.50;;;;;;;;5084938;27;61767;-82
2023/01/03 08:30:43;;;;;;;;;3.00;2.75;;;;;;;;5085126;27;62049;-83
2023/01/03 08:33:10;;;;;;;;;4.75;4.75;;;;;;;;5083401;28;61958;-81
2023/01/03 08:35:37;;;;;;;;;6.75;6.50;;;;;;;;5084389;28;61749;-79
2023/01/03 08:38:04;;;;;;;;;12.00;5.00;;;;;;;;5084565;27;61925;-79
2023/01/03 08:40:31;;;;;;;;;3.75;2.00;;;;;;;;5084877;28;62075;-83
2023/01/03 08:42:57;;;;;;;;;5.00;3.00;;;;;;;;5083099;28;61780;-83
2023/01/03 08:45:22;;;;;;;;;10.75;9.00;;;;;;;;5082161;28;63703;-83
2023/01/03 08:47:47;;;;;;;;;11.00;3.25;;;;;;;;5084421;27;61741;-84
2023/01/03 08:50:13;;;;;;;;;6.00;3.75;;;;;;;;5083841;27;62493;-85
2023/01/03 08:52:38;;;;;;;;;10.00;5.50;;;;;;;;5083548;28;62034;-84
2023/01/03 08:55:04;;;;;;;;;13.00;6.75;;;;;;;;5082301;28;63559;-84
2023/01/03 08:57:29;;;;;;;;;8.25;6.50;;;;;;;;5083273;28;61989;-85
2023/01/03 08:59:54;;;;;;;;;6.75;5.50;;;;;;;;5088401;27;61934;-82
2023/01/03 09:02:20;;;;;;;;;3.00;3.00;;;;;;;;5105377;27;62353;-84
2023/01/03 09:04:45;;;;;;;;;4.00;2.50;;;;;;;;5103892;27;62446;-81
2023/01/03 09:07:11;;;;;;;;;7.00;4.00;;;;;;;;5104903;27;61935;-80
2023/01/03 09:09:36;;;;;;;;;8.00;6.75;;;;;;;;5105032;27;61848;-81
2023/01/03 09:12:01;;;;;;;;;4.00;4.00;;;;;;;;5096932;27;61717;-79
2023/01/03 09:14:28;;;;;;;;;10.25;6.00;;;;;;;;5083835;28;63321;-79
2023/01/03 09:16:53;;;;;;;;;3.75;3.00;;;;;;;;5084528;27;61758;-79
2023/01/03 09:19:18;;;;;;;;;3.00;3.00;;;;;;;;5082701;28;61869;-79
2023/01/03 09:21:44;;;;;;;;;4.00;4.00;;;;;;;;5083627;28;61818;-83
2023/01/03 09:24:09;;;;;;;;;6.25;4.50;;;;;;;;5083222;28;63051;-82
2023/01/03 09:26:39;;;;;;;;;6.50;3.75;;;;;;;;5082810;28;61950;-84
2023/01/03 09:29:07;;;;;;;;;2.25;2.00;;;;;;;;5083922;27;61813;-84
2023/01/03 09:31:33;;;;;;;;;4.50;2.50;;;;;;;;5084760;27;61699;-83
2023/01/03 09:34:04;;;;;;;;;9.50;6.00;;;;;;;;5083141;28;61716;-82
2023/01/03 09:36:29;;;;;;;;;6.50;4.00;;;;;;;;5084266;27;61832;-83
2023/01/03 09:38:54;;;;;;;;;5.00;3.25;;;;;;;;5067617;28;62047;-83
2023/01/03 09:41:24;;;;;;;;;4.75;2.50;;;;;;;;5078900;28;62174;-82
2023/01/03 09:43:51;;;;;;;;;3.00;3.00;;;;;;;;5061877;28;63578;-84
2023/01/03 09:46:21;;;;;;;;;3.00;3.00;;;;;;;;5063654;28;62087;-83
2023/01/03 09:48:47;;;;;;;;;3.75;3.75;;;;;;;;5078616;28;61959;-82
2023/01/03 10:05:30;;;;;;;;;3.00;2.00;;;;;;;;5102331;27;61754;-83
2023/01/03 10:07:56;;;;;;;;;3.75;2.25;;;;;;;;5102172;27;62192;-83
2023/01/03 10:10:27;;;;;;;;;2.50;1.50;;;;;;;;5102958;27;61801;-83
2023/01/03 10:13:11;;;;;;;;;6.00;4.50;;;;;;;;5088989;27;61894;-85
2023/01/03 10:15:55;;;;;;;;;2.25;2.25;;;;;;;;5082762;27;61993;-84
2023/01/03 10:18:33;;;;;;;;;3.75;2.50;;;;;;;;5081650;28;62208;-83
2023/01/03 10:21:07;;;;;;;;;3.25;1.50;;;;;;;;5081653;28;62011;-84
2023/01/03 10:23:34;;;;;;;;;7.00;5.00;;;;;;;;5083539;27;61968;-82
2023/01/03 10:25:59;;;;;;;;;4.25;3.00;;;;;;;;5081331;28;63718;-84
2023/01/03 10:28:26;;;;;;;;;8.75;4.00;;;;;;;;5082894;28;61932;-84
2023/01/03 10:31:10;;;;;;;;;8.00;4.00;;;;;;;;5082025;28;61937;-84
2023/01/03 10:33:35;;;;;;;;;2.00;2.00;;;;;;;;5081781;28;62198;-84
2023/01/03 10:36:01;;;;;;;;;6.75;3.50;;;;;;;;5081235;28;63618;-84
2023/01/03 10:38:27;;;;;;;;;5.50;2.00;;;;;;;;5070410;27;61758;-84
2023/01/03 10:40:55;;;;;;;;;8.75;4.50;;;;;;;;5062657;28;61702;-84
2023/01/03 10:43:27;;;;;;;;;7.75;5.00;;;;;;;;5062824;28;61735;-84
2023/01/03 10:45:54;;;;;;;;;13.75;4.00;;;;;;;;5077900;28;64761;-83
2023/01/03 10:48:19;;;;;;;;;2.75;2.00;;;;;;;;5061033;28;62019;-83
2023/01/03 10:50:45;;;;;;;;;2.00;1.00;;;;;;;;5061187;28;61737;-83
2023/01/03 10:53:12;;;;;;;;;8.75;2.00;;;;;;;;5062629;28;62185;-85
2023/01/03 10:55:44;;;;;;;;;4.00;3.25;;;;;;;;5060362;28;63532;-82
2023/01/03 10:58:21;;;;;;;;;2.00;2.00;;;;;;;;5062638;28;61927;-81
2023/01/03 11:00:47;;;;;;;;;2.75;2.00;;;;;;;;5092208;27;61944;-82
2023/01/03 11:03:15;;;;;;;;;3.00;1.75;;;;;;;;5101390;27;61835;-82
2023/01/03 11:05:43;;;;;;;;;2.00;2.00;;;;;;;;5102223;27;63021;-82
2023/01/03 11:08:22;;;;;;;;;5.00;2.50;;;;;;;;5101337;27;61899;-80
2023/01/03 11:10:49;;;;;;;;;5.00;4.00;;;;;;;;5103021;27;61703;-80
2023/01/03 11:13:35;;;;;;;;;4.00;3.00;;;;;;;;5085342;27;61693;-80
2023/01/03 11:16:01;;;;;;;;;2.75;2.75;;;;;;;;5081727;27;61847;-78
2023/01/03 11:18:27;;;;;;;;;3.00;2.00;;;;;;;;5080784;28;61933;-78
2023/01/03 11:21:00;;;;;;;;;3.25;3.25;;;;;;;;5082333;27;61735;-78
2023/01/03 11:23:34;;;;;;;;;4.75;3.00;;;;;;;;5082594;27;62000;-78
2023/01/03 11:25:59;;;;;;;;;3.50;3.00;;;;;;;;5082044;28;62750;-79
2023/01/03 11:28:25;;;;;;;;;4.00;4.00;;;;;;;;5083208;28;61738;-79
2023/01/03 11:30:56;;;;;;;;;4.00;2.00;;;;;;;;5080819;28;62150;-77
2023/01/03 11:33:34;;;;;;;;;2.50;2.50;;;;;;;;5081473;27;61972;-80
2023/01/03 11:36:04;;;;;;;;;3.25;3.00;;;;;;;;5081026;27;61840;-79
2023/01/03 11:38:43;;;;;;;;;7.50;3.00;;;;;;;;5080442;27;61839;-79
2023/01/03 11:41:18;;;;;;;;;4.75;3.00;;;;;;;;5081949;27;61770;-79
2023/01/03 11:43:55;;;;;;;;;7.25;3.50;;;;;;;;5082232;28;61789;-79
2023/01/03 11:46:23;;;;;;;;;2.00;2.00;;;;;;;;5084347;27;62879;-80
2023/01/03 11:49:09;;;;;;;;;4.75;2.00;;;;;;;;5085047;27;61693;-79
2023/01/03 11:51:52;;;;;;;;;5.50;2.25;;;;;;;;5062556;28;61840;-80
2023/01/03 11:54:23;;;;;;;;;3.50;3.50;;;;;;;;5045891;28;62233;-80
2023/01/03 11:56:49;;;;;;;;;2.75;2.75;;;;;;;;5062381;28;62226;-80
2023/01/03 11:59:24;;;;;;;;;1.00;1.00;;;;;;;;5047752;28;61895;-80
2023/01/03 12:01:56;;;;;;;;;1.75;1.75;;;;;;;;5083067;28;62158;-85
2023/01/03 12:04:36;;;;;;;;;1.00;1.00;;;;;;;;5083179;28;61871;-79
2023/01/03 12:07:19;;;;;;;;;2.00;1.25;;;;;;;;5037560;28;64968;-79
2023/01/03 12:09:47;;;;;;;;;2.25;2.00;;;;;;;;5053437;28;61951;-80
2023/01/03 12:12:18;;;;;;;;;2.00;2.00;;;;;;;;5031254;28;61956;-83
2023/01/03 12:14:51;;;;;;;;;2.00;2.00;;;;;;;;5055567;28;61989;-81
2023/01/03 12:17:23;;;;;;;;;0.00;0.00;;;;;;;;5033749;28;63987;-82
2023/01/03 12:19:56;;;;;;;;;1.00;1.00;;;;;;;;5050587;28;61919;-81
2023/01/03 12:22:26;;;;;;;;;5.00;1.00;;;;;;;;5052770;28;61909;-81
2023/01/03 12:24:56;;;;;;;;;1.25;1.00;;;;;;;;5035161;28;62068;-81
2023/01/03 12:27:29;;;;;;;;;3.25;1.00;;;;;;;;5050001;28;63476;-81
2023/01/03 12:30:23;;;;;;;;;1.00;1.00;;;;;;;;5078018;28;61761;-79
2023/01/03 12:32:52;;;;;;;;;1.25;1.00;;;;;;;;5081569;28;62658;-79
2023/01/03 12:35:17;;;;;;;;;1.00;1.00;;;;;;;;5084337;27;62161;-79
2023/01/03 12:37:44;;;;;;;;;2.00;2.00;;;;;;;;5081770;28;62028;-79
2023/01/03 12:40:09;;;;;;;;;1.00;1.00;;;;;;;;5083222;27;61819;-79
2023/01/03 12:42:39;;;;;;;;;2.25;2.00;;;;;;;;5084132;27;61857;-79
2023/01/03 12:45:19;;;;;;;;;1.00;1.00;;;;;;;;5082932;28;61781;-79
2023/01/03 12:47:44;;;;;;;;;4.00;2.75;;;;;;;;5082530;28;62126;-79
2023/01/03 12:50:19;;;;;;;;;1.25;1.25;;;;;;;;5080474;28;61928;-80
2023/01/03 12:52:55;;;;;;;;;1.00;1.00;;;;;;;;5082739;27;62084;-81
2023/01/03 12:55:39;;;;;;;;;3.25;2.00;;;;;;;;5082935;28;62268;-84
2023/01/03 12:58:14;;;;;;;;;2.00;2.00;;;;;;;;5081414;28;63660;-84
2023/01/03 13:00:42;;;;;;;;;5.00;1.00;;;;;;;;5092975;27;61912;-80
2023/01/03 13:03:16;;;;;;;;;2.25;2.00;;;;;;;;5104901;27;61710;-80
2023/01/03 13:05:50;;;;;;;;;3.00;2.00;;;;;;;;5105290;27;61721;-84
2023/01/03 13:08:30;;;;;;;;;5.25;2.00;;;;;;;;5105587;27;61996;-84
2023/01/03 13:10:58;;;;;;;;;2.00;2.00;;;;;;;;5103419;27;62378;-82
2023/01/03 13:13:27;;;;;;;;;2.25;2.00;;;;;;;;5085748;27;62180;-83
2023/01/03 13:15:53;;;;;;;;;2.75;1.50;;;;;;;;5084412;27;62060;-83
2023/01/03 13:18:21;;;;;;;;;6.50;2.25;;;;;;;;5083636;28;61955;-83
2023/01/03 13:20:47;;;;;;;;;3.50;2.00;;;;;;;;5082712;28;61792;-83
2023/01/03 13:23:12;;;;;;;;;1.00;1.00;;;;;;;;5083384;28;62216;-83
2023/01/03 13:25:39;;;;;;;;;2.75;1.75;;;;;;;;5084477;28;61847;-84
2023/01/03 13:28:05;;;;;;;;;3.25;1.75;;;;;;;;5082427;28;63668;-84
2023/01/03 13:30:31;;;;;;;;;1.50;1.00;;;;;;;;5084014;28;61769;-82
2023/01/03 13:33:09;;;;;;;;;3.75;1.00;;;;;;;;5082982;27;61777;-82
2023/01/03 13:35:35;;;;;;;;;1.75;1.75;;;;;;;;5063715;28;61731;-81
2023/01/03 13:38:21;;;;;;;;;4.25;2.00;;;;;;;;5072102;28;63120;-82
2023/01/03 13:40:47;;;;;;;;;2.50;2.00;;;;;;;;5064031;28;61801;-81
2023/01/03 13:43:15;;;;;;;;;5.00;2.00;;;;;;;;5083183;27;62307;-82
2023/01/03 13:45:41;;;;;;;;;7.50;2.50;;;;;;;;5082342;28;61982;-83
2023/01/03 13:48:16;;;;;;;;;1.50;1.25;;;;;;;;5082704;28;61974;-81
2023/01/03 13:51:00;;;;;;;;;3.25;2.75;;;;;;;;5082371;28;61881;-84
2023/01/03 13:53:34;;;;;;;;;5.50;2.75;;;;;;;;5082488;28;61953;-84
2023/01/03 13:56:15;;;;;;;;;1.00;1.00;;;;;;;;5082674;28;61800;-84
2023/01/03 13:58:43;;;;;;;;;4.00;2.00;;;;;;;;5082044;28;61919;-83
2023/01/03 14:01:20;;;;;;;;;4.00;2.00;;;;;;;;5099697;27;62000;-83
2023/01/03 14:04:01;;;;;;;;;2.00;2.00;;;;;;;;5095297;27;61917;-84
2023/01/03 14:06:45;;;;;;;;;3.00;2.00;;;;;;;;5083903;27;61905;-84
2023/01/03 14:09:17;;;;;;;;;3.50;2.00;;;;;;;;5081371;27;61906;-81
2023/01/03 14:11:52;;;;;;;;;2.00;1.75;;;;;;;;5081644;28;61735;-84
2023/01/03 14:14:20;;;;;;;;;2.00;2.00;;;;;;;;5084060;28;61963;-81
2023/01/03 14:16:50;;;;;;;;;3.50;1.75;;;;;;;;5081403;28;61903;-81
2023/01/03 14:19:19;;;;;;;;;2.50;1.00;;;;;;;;5082924;28;61809;-84
2023/01/03 14:21:44;;;;;;;;;2.50;1.25;;;;;;;;5082809;28;61964;-84
2023/01/03 14:24:15;;;;;;;;;3.25;0.75;;;;;;;;5082520;28;62201;-83
2023/01/03 14:26:41;;;;;;;;;5.75;2.50;;;;;;;;5080506;28;61775;-83
2023/01/03 14:29:08;;;;;;;;;3.00;1.00;;;;;;;;5082430;27;61742;-83
2023/01/03 14:31:34;;;;;;;;;0.25;0.25;;;;;;;;5082485;27;61908;-81
2023/01/03 14:34:02;;;;;;;;;2.75;1.25;;;;;;;;5082164;27;61836;-82
2023/01/03 14:36:28;;;;;;;;;3.00;2.00;;;;;;;;5082269;28;61806;-81
2023/01/03 14:38:53;;;;;;;;;4.00;3.00;;;;;;;;5077511;28;63320;-81
2023/01/03 14:41:24;;;;;;;;;2.75;2.00;;;;;;;;5061498;28;61871;-81
2023/01/03 14:43:56;;;;;;;;;2.00;2.00;;;;;;;;5063153;28;61845;-82
2023/01/03 14:46:26;;;;;;;;;3.00;2.50;;;;;;;;5062529;28;61766;-83
2023/01/03 14:48:51;;;;;;;;;1.25;1.25;;;;;;;;5071553;28;61892;-80
2023/01/03 14:51:17;;;;;;;;;2.00;0.75;;;;;;;;5080408;28;61792;-81
2023/01/03 14:53:44;;;;;;;;;2.00;2.00;;;;;;;;5082541;28;61908;-82
2023/01/03 14:56:10;;;;;;;;;1.00;1.00;;;;;;;;5081075;28;62078;-81
2023/01/03 14:58:38;;;;;;;;;2.25;2.25;;;;;;;;5081223;27;61979;-79
2023/01/03 15:01:05;;;;;;;;;0.50;0.50;;;;;;;;5080741;27;61877;-79
2023/01/03 15:03:31;;;;;;;;;3.50;3.00;;;;;;;;5080817;28;61879;-79
2023/01/03 15:05:58;;;;;;;;;1.00;1.00;;;;;;;;5082616;27;61855;-79
2023/01/03 15:08:26;;;;;;;;;5.00;2.00;;;;;;;;5081350;27;61834;-79
2023/01/03 15:10:54;;;;;;;;;2.25;1.75;;;;;;;;5082043;27;61878;-78
2023/01/03 15:13:33;;;;;;;;;3.00;1.25;;;;;;;;5080358;28;61960;-78
2023/01/03 15:16:00;;;;;;;;;2.00;1.00;;;;;;;;5080347;28;62183;-79
2023/01/03 15:18:27;;;;;;;;;3.50;2.00;;;;;;;;5081458;27;61885;-79
2023/01/03 15:20:54;;;;;;;;;1.50;1.50;;;;;;;;5079914;28;61758;-78
2023/01/03 15:23:22;;;;;;;;;7.00;2.00;;;;;;;;5081593;27;61984;-78
2023/01/03 15:25:48;;;;;;;;;1.00;1.00;;;;;;;;5081707;27;61728;-79
2023/01/03 15:28:23;;;;;;;;;4.50;2.25;;;;;;;;5081038;28;61987;-79
2023/01/03 15:30:48;;;;;;;;;1.50;1.50;;;;;;;;5077906;28;61955;-79
2023/01/03 15:33:23;;;;;;;;;3.00;2.00;;;;;;;;5081816;27;61858;-79
2023/01/03 15:35:50;;;;;;;;;3.00;3.00;;;;;;;;5078825;28;61901;-79
2023/01/03 15:38:18;;;;;;;;;4.00;3.25;;;;;;;;5078732;27;63010;-79
2023/01/03 15:40:46;;;;;;;;;2.75;2.00;;;;;;;;5081481;27;61966;-79
2023/01/03 15:43:20;;;;;;;;;3.00;2.00;;;;;;;;5081009;27;62624;-79
2023/01/03 15:46:08;;;;;;;;;3.75;3.00;;;;;;;;5079112;28;61783;-79
2023/01/03 15:48:34;;;;;;;;;2.00;2.00;;;;;;;;5077215;28;62123;-79